Time;durP1;ratioP1;P1;durP2;ratioP2;P2;SDS_P1;SDS_P2;PMS_P1;PMS_P2;Temp;Humidity;BMP_temperature;BMP_pressure;BME280_temperature;BME280_humidity;BME280_pressure;Samples;Min_cycle;Max_cycle;Signal;HPM_P1;HPM_P2
2021/12/04 00:00:35;;;;;;;0.10;0.10;;;;;;;7.62;70.70;100062.13;5016732;28;20026;-90
2021/12/04 00:03:01;;;;;;;0.38;0.38;;;;;;;7.68;70.58;100056.75;5018585;28;20103;-91
2021/12/04 00:05:27;;;;;;;0.20;0.20;;;;;;;7.63;71.04;100055.97;5005531;28;20030;-92
2021/12/04 00:07:53;;;;;;;0.25;0.25;;;;;;;7.67;71.03;100047.09;5008245;28;20034;-91
2021/12/04 00:10:26;;;;;;;0.20;0.20;;;;;;;7.70;70.96;100044.41;5011656;28;20064;-92
2021/12/04 00:12:52;;;;;;;1.08;1.08;;;;;;;7.71;70.32;100037.34;5005941;28;20022;-92
2021/12/04 00:15:18;;;;;;;0.10;0.10;;;;;;;7.70;71.14;100035.59;5001151;28;20041;-90
2021/12/04 00:17:45;;;;;;;0.57;0.57;;;;;;;7.64;70.82;100026.06;5001958;28;20081;-91
2021/12/04 00:20:12;;;;;;;0.15;0.15;;;;;;;7.67;71.15;100031.28;4999912;28;20034;-91
2021/12/04 00:22:39;;;;;;;0.20;0.20;;;;;;;7.60;70.65;100029.66;5004281;28;20030;-91
2021/12/04 00:25:07;;;;;;;0.28;0.28;;;;;;;7.66;71.25;100024.25;5004983;28;20028;-91
2021/12/04 00:27:34;;;;;;;0.35;0.35;;;;;;;7.63;70.92;100028.72;5008060;28;20045;-92
2021/12/04 00:30:00;;;;;;;2.50;1.38;;;;;;;7.70;71.22;100015.41;5005124;28;20060;-92
2021/12/04 00:32:31;;;;;;;0.10;0.10;;;;;;;7.68;71.05;100019.84;5009861;28;20473;-91
2021/12/04 00:35:09;;;;;;;4.15;1.13;;;;;;;7.65;71.15;100017.28;5010598;28;20394;-92
2021/12/04 00:38:04;;;;;;;0.20;0.20;;;;;;;7.69;70.74;100003.13;5006820;28;20088;-88
2021/12/04 00:51:26;;;;;;;2.45;2.30;;;;;;;7.72;71.20;100008.31;5007472;28;20038;-88
2021/12/04 00:53:54;;;;;;;1.50;1.48;;;;;;;7.73;70.58;100007.41;5008792;28;20026;-88
2021/12/04 00:56:22;;;;;;;0.10;0.10;;;;;;;7.72;70.61;100015.38;5001030;28;20080;-88
2021/12/04 00:58:48;;;;;;;0.45;0.45;;;;;;;7.75;70.62;100018.81;5003363;28;20033;-89
2021/12/04 01:01:16;;;;;;;2.50;1.17;;;;;;;7.80;70.41;100017.81;5003406;28;20032;-88
2021/12/04 01:03:42;;;;;;;0.75;0.75;;;;;;;7.81;70.47;100017.78;5011950;28;20169;-88
2021/12/04 01:06:09;;;;;;;0.35;0.35;;;;;;;7.88;70.63;100013.25;5008091;28;20034;-88
2021/12/04 01:08:35;;;;;;;0.55;0.55;;;;;;;7.88;70.25;100003.56;5004610;28;20053;-88
2021/12/04 01:11:02;;;;;;;2.17;1.30;;;;;;;7.86;70.71;100000.13;5000169;28;20029;-89
2021/12/04 01:13:30;;;;;;;0.40;0.40;;;;;;;7.90;70.27;99995.63;5004956;28;20425;-89
2021/12/04 01:15:56;;;;;;;0.20;0.20;;;;;;;7.82;71.18;99998.44;5003139;28;20034;-89
2021/12/04 01:18:22;;;;;;;0.40;0.40;;;;;;;7.87;71.06;100000.97;4999375;28;20469;-87
2021/12/04 01:20:49;;;;;;;1.17;1.17;;;;;;;7.88;70.91;99997.44;5007048;28;20108;-87
2021/12/04 01:23:16;;;;;;;0.10;0.10;;;;;;;7.87;70.54;100000.97;5006600;28;20088;-89
2021/12/04 01:25:44;;;;;;;1.17;1.17;;;;;;;7.80;71.19;99991.47;5016085;28;20112;-88
2021/12/04 01:28:10;;;;;;;1.17;1.17;;;;;;;7.89;70.86;99988.63;5014750;28;20065;-88
2021/12/04 01:30:37;;;;;;;0.52;0.52;;;;;;;7.88;70.96;99989.53;5019454;28;20124;-88
2021/12/04 01:33:03;;;;;;;1.30;1.27;;;;;;;7.91;70.61;99981.53;5003996;28;20037;-88
2021/12/04 01:35:30;;;;;;;0.30;0.30;;;;;;;7.89;70.44;99978.94;5013849;28;20492;-88
2021/12/04 01:37:56;;;;;;;0.20;0.20;;;;;;;7.91;70.84;99981.53;5013340;28;20033;-88
2021/12/04 01:40:23;;;;;;;0.10;0.10;;;;;;;7.91;70.53;99977.13;5014212;28;20030;-88
2021/12/04 01:42:49;;;;;;;1.38;1.27;;;;;;;7.86;70.80;99973.75;5011732;28;20041;-88
2021/12/04 01:45:18;;;;;;;0.40;0.40;;;;;;;7.87;70.81;99957.00;5015454;28;20026;-88
2021/12/04 01:47:45;;;;;;;0.90;0.90;;;;;;;7.90;70.95;99958.69;5011902;28;20456;-87
2021/12/04 01:50:11;;;;;;;0.45;0.45;;;;;;;7.89;70.45;99970.16;5012637;28;20096;-88
2021/12/04 01:52:38;;;;;;;0.20;0.20;;;;;;;7.86;70.67;99967.59;5022170;28;20133;-88
2021/12/04 01:55:05;;;;;;;3.00;1.48;;;;;;;7.86;70.79;99972.84;5015920;28;20473;-88
2021/12/04 01:57:32;;;;;;;0.68;0.68;;;;;;;7.91;70.64;99977.13;5016772;28;20045;-88
2021/12/04 01:59:58;;;;;;;1.15;1.15;;;;;;;7.83;70.94;99972.94;5016759;28;20032;-88
2021/12/04 02:02:25;;;;;;;0.10;0.10;;;;;;;7.77;70.98;99963.38;5013571;28;20501;-87
2021/12/04 02:04:51;;;;;;;1.88;0.90;;;;;;;7.78;71.27;99960.72;5020952;28;20038;-88
2021/12/04 02:07:20;;;;;;;0.10;0.10;;;;;;;7.75;70.96;99966.06;5018170;28;20048;-88
2021/12/04 02:09:46;;;;;;;0.43;0.43;;;;;;;7.82;71.07;99960.66;5020034;28;20129;-88
2021/12/04 02:12:12;;;;;;;9.27;1.25;;;;;;;7.86;71.26;99962.31;5018931;28;20104;-84
2021/12/04 02:14:41;;;;;;;0.30;0.30;;;;;;;7.89;70.53;99956.97;5011687;28;20037;-86
2021/12/04 02:17:08;;;;;;;0.20;0.20;;;;;;;7.92;70.67;99948.97;5021271;28;20044;-87
2021/12/04 02:19:35;;;;;;;1.58;1.13;;;;;;;7.90;71.05;99948.13;5027011;28;20369;-87
2021/12/04 02:22:02;;;;;;;0.55;0.55;;;;;;;7.92;70.33;99943.69;5014710;28;20037;-87
2021/12/04 02:24:28;;;;;;;3.38;3.03;;;;;;;7.92;70.31;99941.94;5023318;28;20080;-88
2021/12/04 02:26:54;;;;;;;1.17;0.70;;;;;;;7.95;71.04;99943.66;5018820;28;20045;-87
2021/12/04 02:29:21;;;;;;;0.10;0.10;;;;;;;7.93;71.14;99950.72;5025615;28;21627;-86
2021/12/04 02:31:48;;;;;;;0.20;0.20;;;;;;;7.82;71.14;99955.38;5021297;28;20126;-87
2021/12/04 02:34:31;;;;;;;0.30;0.30;;;;;;;7.96;70.47;99948.00;5016070;28;20034;-87
2021/12/04 02:36:58;;;;;;;0.63;0.63;;;;;;;7.89;70.97;99943.78;5022369;28;20037;-87
2021/12/04 02:39:30;;;;;;;0.40;0.40;;;;;;;7.95;70.92;99933.09;5017372;28;20087;-88
2021/12/04 02:41:57;;;;;;;0.20;0.20;;;;;;;7.91;71.22;99934.06;5012948;28;20044;-89
2021/12/04 02:44:34;;;;;;;0.10;0.10;;;;;;;7.94;70.71;99929.56;5018470;28;20488;-88
2021/12/04 02:47:01;;;;;;;0.90;0.52;;;;;;;7.87;70.87;99933.25;5016590;28;20496;-88
2021/12/04 02:49:27;;;;;;;0.25;0.25;;;;;;;7.90;71.22;99938.47;5015041;28;20032;-88
2021/12/04 02:51:53;;;;;;;0.90;0.90;;;;;;;7.85;71.30;99934.19;5017814;28;20084;-87
2021/12/04 02:54:19;;;;;;;1.45;0.98;;;;;;;7.91;71.31;99934.06;5016469;28;20415;-87
2021/12/04 02:56:46;;;;;;;0.10;0.10;;;;;;;7.94;70.74;99934.00;5018988;28;20030;-87
2021/12/04 02:59:13;;;;;;;0.20;0.20;;;;;;;7.94;70.88;99937.47;5022153;28;20064;-86
2021/12/04 03:01:41;;;;;;;0.50;0.50;;;;;;;7.97;71.01;99939.19;5017814;28;20029;-87
2021/12/04 03:04:09;;;;;;;28.02;2.67;;;;;;;8.03;70.51;99927.63;5015213;28;20038;-86
2021/12/04 03:06:42;;;;;;;0.43;0.43;;;;;;;8.01;71.02;99929.44;5017230;28;20025;-87
2021/12/04 03:09:08;;;;;;;;;;;;;;;8.16;70.75;99933.47;5022101;28;20057;-87
2021/12/04 03:11:34;;;;;;;0.10;0.10;;;;;;;8.05;71.04;99926.69;5013888;28;19913;-87
2021/12/04 03:14:00;;;;;;;0.17;0.17;;;;;;;8.08;70.69;99921.31;5014604;28;20117;-87
2021/12/04 03:16:27;;;;;;;0.17;0.17;;;;;;;8.12;70.33;99918.63;5025604;28;20034;-87
2021/12/04 03:18:53;;;;;;;0.13;0.13;;;;;;;8.14;70.89;99920.31;5013029;28;20079;-87
2021/12/04 03:21:20;;;;;;;0.10;0.10;;;;;;;8.02;71.25;99921.47;5012967;28;20660;-87
2021/12/04 03:24:03;;;;;;;0.10;0.10;;;;;;;8.06;71.19;99912.59;5027810;28;20025;-87
2021/12/04 03:26:33;;;;;;;0.30;0.30;;;;;;;8.11;70.40;99915.09;5025582;28;20069;-87
2021/12/04 03:29:04;;;;;;;0.90;0.90;;;;;;;8.12;70.44;99908.91;5024179;28;20104;-87
2021/12/04 03:35:18;;;;;;;0.10;0.10;;;;;;;8.08;70.46;99899.34;5079768;27;20863;-87
2021/12/04 03:40:08;;;;;;;0.10;0.10;;;;;;;8.14;71.01;99890.41;5063254;28;20033;-86
2021/12/04 03:42:35;;;;;;;0.20;0.20;;;;;;;8.15;71.03;99889.50;5053385;28;20495;-86
2021/12/04 03:45:02;;;;;;;0.47;0.47;;;;;;;8.18;70.66;99890.28;5049852;28;20041;-86
2021/12/04 03:47:30;;;;;;;0.28;0.28;;;;;;;8.18;70.73;99882.38;5049824;28;20021;-87
2021/12/04 03:49:56;;;;;;;0.20;0.20;;;;;;;8.21;70.56;99884.06;5050158;28;20028;-87
2021/12/04 03:52:23;;;;;;;0.10;0.10;;;;;;;8.20;70.61;99879.69;5055853;28;20037;-86
2021/12/04 03:54:49;;;;;;;0.20;0.20;;;;;;;8.18;70.67;99878.88;5051548;28;20507;-87
2021/12/04 03:57:16;;;;;;;0.13;0.13;;;;;;;8.22;70.28;99875.25;5048278;28;20476;-88
2021/12/04 03:59:46;;;;;;;0.10;0.10;;;;;;;8.20;70.81;99877.06;5046560;28;20365;-87
2021/12/04 04:02:14;;;;;;;3.83;1.08;;;;;;;8.17;71.06;99877.16;5049708;28;20116;-87
2021/12/04 04:04:41;;;;;;;1.77;1.67;;;;;;;8.18;70.61;99873.63;5046068;28;20439;-87
2021/12/04 04:07:08;;;;;;;0.10;0.10;;;;;;;8.15;70.63;99873.69;5049064;28;20037;-87
2021/12/04 04:09:35;;;;;;;0.15;0.15;;;;;;;8.17;70.52;99867.44;5049911;28;20029;-87
2021/12/04 04:12:02;;;;;;;0.10;0.10;;;;;;;8.22;70.78;99855.03;5046813;28;20033;-87
2021/12/04 04:14:28;;;;;;;1.00;1.00;;;;;;;8.22;70.67;99860.31;5044209;28;20021;-88
2021/12/04 04:16:56;;;;;;;0.20;0.20;;;;;;;8.23;70.97;99863.81;5042001;28;20037;-87
2021/12/04 04:19:23;;;;;;;0.17;0.17;;;;;;;8.22;70.92;99859.41;5042815;28;20029;-88
2021/12/04 04:21:56;;;;;;;0.15;0.15;;;;;;;8.24;70.58;99862.91;5047957;28;20111;-88
2021/12/04 04:24:24;;;;;;;0.30;0.30;;;;;;;8.24;70.27;99854.97;5049543;28;20033;-88
2021/12/04 04:26:50;;;;;;;0.10;0.10;;;;;;;8.25;70.24;99848.81;5049193;28;20025;-88
2021/12/04 04:29:16;;;;;;;0.15;0.15;;;;;;;8.22;70.88;99849.75;5052526;28;20040;-87
2021/12/04 04:31:47;;;;;;;0.40;0.40;;;;;;;8.28;70.52;99853.97;5049315;28;20025;-87
2021/12/04 04:34:24;;;;;;;0.73;0.73;;;;;;;8.27;70.22;99852.25;5054040;28;20109;-88
2021/12/04 04:40:27;;;;;;;0.10;0.10;;;;;;;8.30;70.37;99846.91;5067093;28;20430;-88
2021/12/04 05:13:15;;;;;;;0.10;0.10;;;;;;;8.38;70.22;99823.78;5055985;28;20979;-87
2021/12/04 05:21:09;;;;;;;0.17;0.17;;;;;;;8.38;70.23;99815.88;5022510;28;20501;-87
2021/12/04 05:23:46;;;;;;;0.47;0.47;;;;;;;8.42;70.24;99806.97;4976915;28;20039;-87
2021/12/04 05:26:17;;;;;;;1.40;1.40;;;;;;;8.47;70.24;99811.28;4975969;28;20038;-87
2021/12/04 05:28:44;;;;;;;1.02;1.02;;;;;;;8.38;70.73;99807.94;4975521;28;20031;-86
2021/12/04 05:31:10;;;;;;;0.32;0.32;;;;;;;8.46;70.29;99798.97;4975674;28;20043;-86
2021/12/04 05:33:37;;;;;;;0.17;0.17;;;;;;;8.43;70.87;99805.19;4989644;28;20057;-86
2021/12/04 05:36:03;;;;;;;1.27;1.27;;;;;;;8.48;70.51;99805.09;4983050;28;20117;-86
2021/12/04 05:38:30;;;;;;;0.10;0.10;;;;;;;8.46;70.11;99799.88;4984173;28;20037;-87
2021/12/04 05:40:56;;;;;;;1.00;1.00;;;;;;;8.43;70.68;99803.41;4987156;28;20066;-85
2021/12/04 05:43:23;;;;;;;0.75;0.75;;;;;;;8.49;70.55;99805.06;4979869;28;20096;-84
2021/12/04 05:46:01;;;;;;;0.10;0.10;;;;;;;8.48;70.61;99810.38;4976440;28;20023;-89
2021/12/04 05:48:32;;;;;;;0.17;0.17;;;;;;;8.47;70.07;99804.22;4988849;28;20039;-86
2021/12/04 05:51:18;;;;;;;1.75;1.65;;;;;;;8.47;70.47;99806.00;4991091;28;21474;-86
2021/12/04 05:53:56;;;;;;;0.45;0.45;;;;;;;8.40;70.35;99802.66;4988864;28;20081;-86
2021/12/04 05:56:23;;;;;;;0.20;0.20;;;;;;;8.40;70.80;99795.59;4988057;28;20556;-86
2021/12/04 05:58:50;;;;;;;0.10;0.10;;;;;;;8.37;70.34;99787.78;4987477;28;20034;-86
2021/12/04 06:01:18;;;;;;;0.70;0.70;;;;;;;8.39;70.85;99790.38;4988200;28;20043;-86
2021/12/04 06:03:45;;;;;;;0.38;0.38;;;;;;;8.40;70.51;99800.00;4988358;28;20110;-87
2021/12/04 06:06:11;;;;;;;0.10;0.10;;;;;;;8.36;70.68;99793.94;4988184;28;20461;-86
2021/12/04 06:08:37;;;;;;;0.25;0.25;;;;;;;8.38;70.67;99786.84;4988158;28;20034;-87
2021/12/04 06:11:04;;;;;;;0.38;0.38;;;;;;;8.39;70.41;99777.16;4988990;28;20045;-85
2021/12/04 06:13:30;;;;;;;0.10;0.10;;;;;;;8.42;70.87;99787.63;4987934;28;20039;-87
2021/12/04 06:15:56;;;;;;;1.55;1.42;;;;;;;8.39;70.88;99793.84;4982112;28;20027;-87
2021/12/04 06:18:23;;;;;;;0.65;0.65;;;;;;;8.40;70.94;99786.81;4982229;28;20042;-86
2021/12/04 06:23:37;;;;;;;0.22;0.22;;;;;;;8.38;70.81;99789.47;4985752;28;20054;-87
2021/12/04 06:26:06;;;;;;;0.52;0.52;;;;;;;8.43;71.11;99790.22;4973472;28;20054;-87
2021/12/04 06:28:33;;;;;;;0.20;0.20;;;;;;;8.44;70.68;99785.81;4995766;28;20453;-87
2021/12/04 06:31:00;;;;;;;0.90;0.70;;;;;;;8.39;70.50;99785.94;4985249;28;20189;-87
2021/12/04 06:33:26;;;;;;;0.20;0.20;;;;;;;8.40;70.43;99786.81;4979058;28;20026;-87
2021/12/04 06:35:53;;;;;;;0.10;0.10;;;;;;;8.41;70.66;99781.50;4969806;28;20034;-87
2021/12/04 06:38:20;;;;;;;2.17;1.00;;;;;;;8.45;70.96;99776.09;4965063;28;20031;-87
2021/12/04 06:40:47;;;;;;;0.20;0.20;;;;;;;8.44;70.56;99780.53;4966401;28;20049;-87
2021/12/04 06:43:15;;;;;;;0.10;0.10;;;;;;;8.42;70.87;99783.22;4965275;28;20026;-87
2021/12/04 06:45:43;;;;;;;0.10;0.10;;;;;;;8.35;71.06;99783.41;4966516;28;20502;-87
2021/12/04 06:48:21;;;;;;;0.20;0.20;;;;;;;8.35;70.40;99783.41;4961884;28;20123;-88
2021/12/04 06:50:51;;;;;;;1.55;1.00;;;;;;;8.36;70.93;99788.66;4972095;28;20118;-87
2021/12/04 06:53:27;;;;;;;0.10;0.10;;;;;;;8.29;70.54;99779.19;4963284;28;20031;-88
2021/12/04 06:55:55;;;;;;;0.63;0.63;;;;;;;8.35;71.00;99783.41;4964709;28;20033;-88
2021/12/04 06:58:24;;;;;;;0.15;0.15;;;;;;;8.36;70.68;99782.50;4972637;28;20030;-88
2021/12/04 07:00:51;;;;;;;0.13;0.13;;;;;;;8.32;70.93;99783.50;4972740;28;20143;-88
2021/12/04 07:03:18;;;;;;;0.10;0.10;;;;;;;8.31;70.84;99784.41;4977892;28;20026;-88
2021/12/04 07:05:44;;;;;;;0.10;0.10;;;;;;;8.30;70.37;99791.47;4981772;28;20023;-88
2021/12/04 07:08:12;;;;;;;0.10;0.10;;;;;;;8.28;70.95;99784.50;4980282;28;20039;-88
2021/12/04 07:10:38;;;;;;;0.28;0.28;;;;;;;8.29;70.65;99787.09;4979370;28;20031;-88
2021/12/04 07:13:06;;;;;;;0.82;0.82;;;;;;;8.31;71.06;99784.41;4979597;28;20031;-88
2021/12/04 07:15:33;;;;;;;1.15;1.05;;;;;;;8.30;70.68;99791.47;4972594;28;20544;-87
2021/12/04 07:18:01;;;;;;;0.40;0.40;;;;;;;8.28;70.94;99785.38;4978805;28;20486;-88
2021/12/04 07:20:28;;;;;;;1.08;1.08;;;;;;;8.22;70.97;99782.91;4977435;28;20043;-87
2021/12/04 07:22:55;;;;;;;0.10;0.10;;;;;;;8.23;71.05;99777.56;4980731;28;20062;-88
2021/12/04 07:25:22;;;;;;;0.10;0.10;;;;;;;8.22;71.03;99775.88;4982478;28;20125;-87
2021/12/04 07:27:50;;;;;;;0.10;0.10;;;;;;;8.16;70.50;99772.50;4979208;28;20043;-87
2021/12/04 07:30:18;;;;;;;0.90;0.75;;;;;;;8.18;70.33;99768.06;4977794;28;20032;-88
2021/12/04 07:32:45;;;;;;;0.20;0.20;;;;;;;8.15;70.33;99769.03;4974310;28;20031;-87
2021/12/04 07:35:12;;;;;;;0.32;0.32;;;;;;;8.16;70.40;99759.31;4979827;28;20397;-87
2021/12/04 07:37:38;;;;;;;0.57;0.57;;;;;;;8.10;70.36;99763.84;4976120;28;20023;-87
2021/12/04 07:40:05;;;;;;;0.82;0.82;;;;;;;8.09;70.37;99759.47;4977946;28;20524;-87
2021/12/04 07:42:31;;;;;;;0.10;0.10;;;;;;;8.11;70.89;99754.16;4983222;28;20031;-86
2021/12/04 07:44:59;;;;;;;0.10;0.10;;;;;;;8.15;70.52;99757.59;4977280;28;20067;-87
2021/12/04 07:47:25;;;;;;;0.10;0.10;;;;;;;8.13;70.56;99759.41;4971869;28;20106;-86
2021/12/04 07:49:52;;;;;;;0.10;0.10;;;;;;;8.15;70.69;99749.66;4972247;28;20027;-86
2021/12/04 07:52:18;;;;;;;0.20;0.20;;;;;;;8.08;70.32;99741.91;4989737;28;20161;-86
2021/12/04 07:54:44;;;;;;;0.40;0.40;;;;;;;8.12;70.13;99741.84;4993531;28;20049;-87
2021/12/04 07:57:10;;;;;;;0.30;0.30;;;;;;;8.14;70.52;99734.75;4979863;28;20022;-87
2021/12/04 07:59:37;;;;;;;0.57;0.57;;;;;;;8.14;70.09;99730.34;4975983;28;20405;-87
2021/12/04 08:02:03;;;;;;;0.10;0.10;;;;;;;8.13;70.23;99718.06;4976151;28;20027;-87
2021/12/04 08:04:30;;;;;;;0.25;0.25;;;;;;;8.10;70.36;99719.00;4976001;28;20035;-87
2021/12/04 08:06:56;;;;;;;0.20;0.20;;;;;;;8.07;70.34;99727.03;4975002;28;20062;-87
2021/12/04 08:09:22;;;;;;;0.20;0.20;;;;;;;8.08;70.36;99714.69;4960061;28;20544;-87
2021/12/04 08:11:50;;;;;;;0.10;0.10;;;;;;;8.06;69.73;99716.50;4964615;28;20537;-87
2021/12/04 08:14:17;;;;;;;0.30;0.30;;;;;;;8.00;70.13;99709.63;4964733;28;20031;-88
2021/12/04 08:16:44;;;;;;;0.77;0.77;;;;;;;8.03;69.97;99706.88;4965835;28;20027;-87
2021/12/04 08:19:10;;;;;;;0.20;0.20;;;;;;;8.03;70.13;99712.16;4963865;28;20051;-87
2021/12/04 08:21:37;;;;;;;0.10;0.10;;;;;;;8.02;70.60;99723.63;4967985;28;20042;-87
2021/12/04 08:24:06;;;;;;;0.10;0.10;;;;;;;8.13;70.28;99723.34;4965714;28;20097;-88
2021/12/04 08:26:33;;;;;;;0.65;0.65;;;;;;;8.10;70.03;99713.72;4966752;28;20026;-87
2021/12/04 08:28:59;;;;;;;0.38;0.38;;;;;;;8.17;70.04;99724.13;4974994;28;20048;-87
2021/12/04 08:31:25;;;;;;;0.17;0.17;;;;;;;8.17;70.67;99719.69;4975880;28;20031;-87
2021/12/04 08:33:51;;;;;;;0.20;0.20;;;;;;;8.16;70.28;99722.38;4973663;28;20500;-87
2021/12/04 08:36:18;;;;;;;1.27;1.27;;;;;;;8.15;70.11;99720.66;4971759;28;20034;-86
2021/12/04 08:38:47;;;;;;;0.43;0.43;;;;;;;8.18;70.34;99728.50;4971524;28;20088;-89
2021/12/04 08:41:15;;;;;;;0.50;0.50;;;;;;;8.26;70.75;99729.13;4970429;28;20031;-88
2021/12/04 08:43:42;;;;;;;0.20;0.20;;;;;;;8.30;70.67;99724.63;4971659;28;20498;-89
2021/12/04 08:46:09;;;;;;;0.28;0.28;;;;;;;8.32;70.26;99728.94;4956776;28;20068;-87
2021/12/04 08:48:35;;;;;;;0.10;0.10;;;;;;;8.33;70.81;99730.69;4963443;28;20027;-88
2021/12/04 08:51:04;;;;;;;10.85;1.92;;;;;;;8.38;70.22;99712.09;4963326;28;20042;-78
2021/12/04 08:53:31;;;;;;;0.20;0.20;;;;;;;8.38;70.45;99717.34;4964740;28;20034;-85
2021/12/04 08:55:57;;;;;;;0.52;0.52;;;;;;;8.39;70.47;99722.59;4968149;28;20048;-85
2021/12/04 08:58:23;;;;;;;0.10;0.10;;;;;;;8.36;70.37;99714.78;4958163;28;20049;-88
2021/12/04 09:00:57;;;;;;;0.63;0.63;;;;;;;8.39;70.24;99713.81;4962751;28;20031;-86
2021/12/04 09:03:28;;;;;;;0.10;0.10;;;;;;;8.43;70.49;99710.16;4960759;28;20035;-85
2021/12/04 09:05:55;;;;;;;0.30;0.30;;;;;;;8.42;70.61;99698.75;4961169;28;20027;-85
2021/12/04 09:08:24;;;;;;;3.95;1.15;;;;;;;8.41;70.19;99698.78;4966613;28;20095;-85
2021/12/04 09:10:53;;;;;;;0.10;0.10;;;;;;;8.43;70.53;99700.47;4958864;28;20046;-86
2021/12/04 09:13:21;;;;;;;0.35;0.35;;;;;;;8.35;69.78;99699.84;4968704;28;20106;-86
2021/12/04 09:15:49;;;;;;;2.83;1.02;;;;;;;8.40;70.38;99702.34;4966450;28;20034;-86
2021/12/04 09:18:15;;;;;;;1.40;1.40;;;;;;;8.44;69.92;99703.97;4961605;28;20027;-87
2021/12/04 09:20:41;;;;;;;0.10;0.10;;;;;;;8.39;70.28;99706.75;4964528;28;20425;-85
2021/12/04 09:23:16;;;;;;;0.60;0.60;;;;;;;8.36;70.48;99704.22;4964261;28;20034;-89
2021/12/04 09:25:47;;;;;;;0.70;0.70;;;;;;;8.43;69.73;99700.47;4969973;28;20026;-86
2021/12/04 09:28:19;;;;;;;2.22;2.05;;;;;;;8.52;69.89;99701.13;4975897;28;20043;-86
2021/12/04 09:36:47;;;;;;;0.20;0.20;;;;;;;8.49;69.52;99688.06;4963395;28;20104;-85
2021/12/04 10:04:43;;;;;;;0.10;0.10;;;;;;;8.69;69.97;99656.59;4978173;28;20042;-93
2021/12/04 10:15:52;;;;;;;0.15;0.15;;;;;;;8.74;69.58;99628.25;5092222;27;20488;-96
2021/12/04 10:18:41;;;;;;;2.85;2.65;;;;;;;8.81;69.69;99630.72;5070307;28;20119;-83
2021/12/04 10:32:07;;;;;;;0.50;0.50;;;;;;;8.84;69.27;99614.78;5072380;27;20484;-92
2021/12/04 10:40:39;;;;;;;0.10;0.10;;;;;;;8.85;69.34;99611.22;5082963;27;20447;-94
2021/12/04 10:43:11;;;;;;;0.20;0.20;;;;;;;8.85;69.47;99616.50;5061372;28;20067;-87
2021/12/04 10:45:41;;;;;;;0.20;0.20;;;;;;;8.84;68.69;99617.44;5064295;28;20033;-88
2021/12/04 10:48:13;;;;;;;0.40;0.40;;;;;;;8.86;68.80;99612.94;5069961;28;20029;-88
2021/12/04 10:53:38;;;;;;;0.15;0.15;;;;;;;8.87;69.32;99602.34;5090616;27;20814;-87
2021/12/04 11:01:52;;;;;;;1.38;1.35;;;;;;;8.77;69.45;99615.88;5083830;27;20848;-88
2021/12/04 11:04:36;;;;;;;0.47;0.47;;;;;;;8.73;69.35;99616.00;5070358;28;20033;-87
2021/12/04 11:19:11;;;;;;;0.55;0.30;;;;;;;8.72;69.86;99582.56;5050012;28;20041;-87
2021/12/04 11:21:40;;;;;;;3.35;1.95;;;;;;;8.79;69.96;99579.75;5050254;28;20042;-90
2021/12/04 11:38:11;;;;;;;0.10;0.10;;;;;;;8.78;69.94;99551.59;5090413;27;19978;-85
2021/12/04 11:41:10;;;;;;;0.82;0.82;;;;;;;8.80;70.23;99544.47;5090506;28;20029;-88
2021/12/04 11:43:35;;;;;;;0.13;0.13;;;;;;;8.85;69.62;99538.13;5050743;28;20049;-87
2021/12/04 11:46:22;;;;;;;3.10;2.00;;;;;;;8.87;69.69;99538.06;5067936;28;20421;-87
2021/12/04 11:48:49;;;;;;;0.10;0.10;;;;;;;8.76;69.93;99534.94;5059034;28;20029;-88
2021/12/04 11:51:19;;;;;;;0.95;0.95;;;;;;;8.83;69.65;99533.81;5049980;28;20021;-86
2021/12/04 11:53:47;;;;;;;0.82;0.45;;;;;;;8.90;69.47;99535.34;5050299;28;20044;-85
2021/12/04 11:56:16;;;;;;;0.30;0.30;;;;;;;8.94;69.49;99525.53;5059522;28;20068;-87
2021/12/04 11:58:45;;;;;;;0.45;0.45;;;;;;;8.97;69.62;99526.28;5049676;28;20054;-88
2021/12/04 12:01:31;;;;;;;0.13;0.13;;;;;;;9.09;69.52;99519.69;5048910;28;20383;-87
2021/12/04 12:04:04;;;;;;;3.47;1.38;;;;;;;9.09;69.73;99518.84;5052827;28;20044;-87
2021/12/04 12:06:37;;;;;;;1.88;0.85;;;;;;;9.10;69.51;99515.25;5049082;28;20029;-86
2021/12/04 12:14:41;;;;;;;0.98;0.98;;;;;;;9.01;70.04;99511.16;5090300;27;20400;-87
2021/12/04 12:17:09;;;;;;;0.15;0.15;;;;;;;8.98;69.89;99498.94;5070469;28;20541;-87
2021/12/04 12:19:40;;;;;;;0.20;0.20;;;;;;;8.99;69.48;99502.47;5070338;28;20087;-87
2021/12/04 12:22:22;;;;;;;0.40;0.40;;;;;;;8.97;69.78;99515.72;5044187;28;20030;-90
2021/12/04 12:33:42;;;;;;;0.20;0.20;;;;;;;8.85;69.98;99505.59;5049062;28;20073;-88
2021/12/04 12:36:13;;;;;;;0.20;0.20;;;;;;;8.89;70.07;99501.91;5047720;28;20100;-88
2021/12/04 12:41:50;;;;;;;3.20;2.50;;;;;;;8.82;70.20;99506.56;5129949;27;20394;-88
2021/12/04 12:44:25;;;;;;;0.10;0.10;;;;;;;8.88;70.29;99510.75;5130307;27;20023;-88
2021/12/04 12:46:55;;;;;;;1.67;1.52;;;;;;;8.84;70.49;99504.69;5130628;27;20374;-87
2021/12/04 12:49:42;;;;;;;0.95;0.95;;;;;;;8.85;70.32;99505.59;5130246;27;20473;-87
2021/12/04 12:52:26;;;;;;;0.25;0.25;;;;;;;8.88;70.02;99502.81;5120262;28;20043;-88
2021/12/04 12:54:57;;;;;;;1.15;1.15;;;;;;;8.83;70.01;99504.75;5110016;28;20030;-88
2021/12/04 12:57:28;;;;;;;0.10;0.10;;;;;;;8.90;69.95;99487.78;5109740;28;20023;-88
2021/12/04 13:11:48;;;;;;;1.38;1.38;;;;;;;9.03;69.75;99488.22;5048181;28;20392;-89
2021/12/04 13:14:21;;;;;;;1.08;0.85;;;;;;;9.08;69.86;99475.69;5029104;28;20049;-89
2021/12/04 13:19:30;;;;;;;0.20;0.20;;;;;;;8.99;70.18;99481.31;5035632;27;1310597;-89
2021/12/04 13:22:02;;;;;;;0.68;0.68;;;;;;;9.02;69.89;99471.50;5061081;28;20029;-90
2021/12/04 13:24:33;;;;;;;0.20;0.20;;;;;;;9.01;70.05;99477.72;5047925;28;20033;-86
2021/12/04 13:32:32;;;;;;;0.95;0.95;;;;;;;9.02;69.80;99468.88;5120635;27;20401;-86
2021/12/04 13:35:12;;;;;;;0.98;0.85;;;;;;;8.85;70.56;99479.16;5068487;28;20108;-86
2021/12/04 13:37:40;;;;;;;0.10;0.10;;;;;;;8.85;69.94;99476.53;5068625;28;20036;-86
2021/12/04 13:40:10;;;;;;;1.65;1.55;;;;;;;8.85;69.97;99476.53;5068114;28;20047;-88
2021/12/04 13:42:38;;;;;;;0.10;0.10;;;;;;;8.77;70.18;99476.75;5068076;28;20403;-86
2021/12/04 13:45:08;;;;;;;0.10;0.10;;;;;;;8.72;70.39;99487.50;5068476;28;20035;-88
2021/12/04 13:47:34;;;;;;;0.20;0.20;;;;;;;8.72;70.25;99490.16;5068001;28;20368;-88
2021/12/04 13:50:06;;;;;;;0.10;0.10;;;;;;;8.65;70.27;99488.63;5068267;28;20036;-89
2021/12/04 13:52:47;;;;;;;0.10;0.10;;;;;;;8.71;70.38;99488.41;5067741;28;20039;-90
2021/12/04 13:55:16;;;;;;;0.10;0.10;;;;;;;8.67;70.29;99493.84;5068020;28;20487;-88
2021/12/04 13:57:44;;;;;;;0.10;0.10;;;;;;;8.63;70.45;99493.09;5068194;28;20048;-89
2021/12/04 14:00:12;;;;;;;0.85;0.85;;;;;;;8.66;69.78;99503.56;5068076;28;20033;-90
2021/12/04 14:02:39;;;;;;;0.20;0.20;;;;;;;8.64;69.98;99507.16;5067886;28;20021;-89
2021/12/04 14:08:03;;;;;;;0.20;0.20;;;;;;;8.64;70.28;99502.75;5070080;28;20444;-87
2021/12/04 14:10:36;;;;;;;0.25;0.25;;;;;;;8.65;70.76;99506.22;5068871;28;20025;-88
2021/12/04 14:13:04;;;;;;;0.10;0.10;;;;;;;8.66;70.43;99511.47;5051945;28;20395;-88
2021/12/04 14:15:32;;;;;;;0.10;0.10;;;;;;;8.63;70.25;99511.56;5048221;28;20028;-88
2021/12/04 14:18:04;;;;;;;1.10;1.00;;;;;;;8.64;70.43;99508.03;5048724;28;20026;-89
2021/12/04 14:20:31;;;;;;;0.68;0.68;;;;;;;8.68;70.38;99509.63;5048429;28;20037;-88
2021/12/04 14:22:59;;;;;;;0.13;0.13;;;;;;;8.69;70.07;99506.09;5048720;28;20144;-88
2021/12/04 14:25:26;;;;;;;0.10;0.10;;;;;;;8.68;70.67;99514.91;5048837;28;20029;-87
2021/12/04 14:27:54;;;;;;;0.10;0.10;;;;;;;8.69;70.46;99516.66;5048868;28;20056;-89
2021/12/04 14:30:25;;;;;;;0.10;0.10;;;;;;;8.70;70.17;99528.09;5048366;28;20033;-86
2021/12/04 14:32:55;;;;;;;0.10;0.10;;;;;;;8.71;70.83;99535.94;5049614;28;20072;-89
2021/12/04 14:35:26;;;;;;;0.17;0.17;;;;;;;8.70;70.25;99536.88;5048444;28;20390;-88
2021/12/04 14:37:55;;;;;;;0.10;0.10;;;;;;;8.67;70.14;99539.63;5049055;28;20067;-87
2021/12/04 14:40:42;;;;;;;0.10;0.10;;;;;;;8.77;70.24;99541.94;5048469;28;20029;-87
2021/12/04 14:43:14;;;;;;;0.10;0.10;;;;;;;8.76;70.37;99542.84;5048594;28;20025;-87
2021/12/04 14:45:46;;;;;;;0.10;0.10;;;;;;;8.70;70.51;99543.94;5048150;28;20037;-87
2021/12/04 14:48:27;;;;;;;0.13;0.13;;;;;;;8.75;70.43;99552.56;5048166;28;20127;-87
2021/12/04 14:51:03;;;;;;;0.10;0.10;;;;;;;8.72;70.25;99558.81;5047715;28;20045;-88
2021/12/04 14:53:31;;;;;;;0.15;0.15;;;;;;;8.72;70.13;99553.53;5047495;28;20109;-88
2021/12/04 14:55:59;;;;;;;0.10;0.10;;;;;;;8.64;70.24;99555.53;5048055;28;20479;-88
2021/12/04 14:58:28;;;;;;;0.10;0.10;;;;;;;8.62;70.60;99552.09;5047903;28;20025;-88
2021/12/04 15:00:59;;;;;;;0.10;0.10;;;;;;;8.63;69.83;99556.47;5048105;28;20396;-87